createdAt,value
2017-01-09T00:00:08.035Z,0.99
2017-01-09T00:01:07.623Z,0.97
2017-01-09T00:02:07.485Z,0.89
2017-01-09T00:03:08.319Z,0.76
2017-01-09T00:04:07.910Z,0.88
2017-01-09T00:05:07.430Z,1.02
2017-01-09T00:06:08.061Z,0.98
2017-01-09T00:07:07.592Z,1.05
2017-01-09T00:08:09.163Z,1.01
2017-01-09T00:09:07.269Z,1.03
2017-01-09T00:10:07.706Z,1.02
2017-01-09T00:11:07.447Z,0.90
2017-01-09T00:12:07.996Z,1.00
2017-01-09T00:13:07.608Z,1.08
2017-01-09T00:14:07.417Z,0.90
2017-01-09T00:15:07.927Z,0.82
2017-01-09T00:16:07.508Z,0.84
2017-01-09T00:17:08.453Z,0.86
2017-01-09T00:18:07.977Z,0.80
2017-01-09T00:19:07.549Z,0.71
2017-01-09T00:20:08.155Z,0.80
2017-01-09T00:21:07.712Z,0.95
2017-01-09T00:22:07.229Z,0.98
2017-01-09T00:23:07.700Z,0.93
2017-01-09T00:24:07.281Z,1.10
2017-01-09T00:25:18.079Z,0.97
2017-01-09T00:26:08.519Z,0.93
2017-01-09T00:27:08.103Z,0.87
2017-01-09T00:28:08.657Z,0.79
2017-01-09T00:29:07.438Z,0.74
2017-01-09T00:30:17.924Z,0.84
2017-01-09T00:31:07.512Z,0.80
2017-01-09T00:32:09.337Z,0.87
2017-01-09T00:33:07.846Z,0.90
2017-01-09T00:36:07.887Z,0.91
2017-01-09T00:37:07.666Z,1.02
2017-01-09T00:38:07.241Z,1.00
2017-01-09T00:39:07.777Z,1.04
2017-01-09T00:40:07.308Z,0.97
2017-01-09T00:41:07.784Z,1.03
2017-01-09T00:42:07.404Z,0.96
2017-01-09T00:43:08.837Z,0.94
2017-01-09T00:44:07.384Z,0.94
2017-01-09T00:45:07.903Z,0.94
2017-01-09T00:46:07.427Z,1.02
2017-01-09T00:47:07.987Z,0.93
2017-01-09T00:48:07.638Z,0.75
2017-01-09T00:49:07.116Z,0.83
2017-01-09T00:50:07.956Z,0.91
2017-01-09T00:51:07.479Z,0.84
2017-01-09T00:52:08.046Z,0.89
2017-01-09T00:53:07.824Z,0.93
2017-01-09T00:54:07.369Z,0.85
2017-01-09T00:55:07.888Z,0.92
2017-01-09T00:56:07.455Z,0.86
2017-01-09T00:57:07.950Z,0.80
2017-01-09T00:58:07.814Z,0.92
2017-01-09T00:59:07.544Z,0.93
2017-01-09T01:00:08.059Z,0.97
2017-01-09T01:01:08.137Z,0.94
2017-01-09T01:02:07.728Z,0.87
2017-01-09T01:03:07.393Z,0.90
2017-01-09T01:04:08.269Z,0.90
2017-01-09T01:05:08.025Z,0.91
2017-01-09T01:06:07.729Z,0.79
2017-01-09T01:07:08.120Z,0.78
2017-01-09T01:10:08.741Z,0.76
2017-01-09T01:12:18.453Z,0.82
2017-01-09T01:13:08.043Z,0.89
2017-01-09T01:14:07.568Z,0.87
2017-01-09T01:15:08.105Z,0.74
2017-01-09T01:16:08.005Z,0.74
2017-01-09T01:17:07.690Z,0.69
2017-01-09T01:18:07.388Z,0.87
2017-01-09T01:19:07.460Z,0.78
2017-01-09T01:20:07.981Z,0.72
2017-01-09T01:21:07.591Z,0.95
2017-01-09T01:22:07.653Z,0.86
2017-01-09T01:23:08.093Z,0.79
2017-01-09T01:24:07.633Z,0.73
2017-01-09T01:25:07.107Z,0.83
2017-01-09T01:26:07.648Z,0.74
2017-01-09T01:27:07.086Z,0.67
2017-01-09T01:28:07.688Z,0.68
2017-01-09T01:29:07.325Z,0.63
2017-01-09T01:36:07.627Z,0.77
2017-01-09T01:37:07.135Z,0.76
2017-01-09T01:38:08.565Z,0.78
2017-01-09T01:39:08.105Z,0.87
2017-01-09T01:40:07.820Z,0.81
2017-01-09T01:41:08.300Z,0.94
2017-01-09T01:42:07.898Z,0.76
2017-01-09T01:43:07.717Z,0.79
2017-01-09T01:44:07.318Z,0.78
2017-01-09T01:45:08.788Z,0.77
2017-01-09T01:46:07.434Z,0.76
2017-01-09T01:47:08.197Z,0.78
2017-01-09T01:48:07.737Z,0.62
2017-01-09T01:49:08.185Z,0.75
2017-01-09T01:50:07.895Z,0.80
2017-01-09T01:51:07.613Z,0.78
2017-01-09T01:52:08.047Z,0.78
2017-01-09T01:53:18.171Z,0.68
2017-01-09T01:54:07.706Z,0.60
2017-01-09T01:55:07.525Z,0.77
2017-01-09T01:56:08.023Z,0.82
2017-01-09T01:57:07.991Z,0.90
2017-01-09T01:58:07.582Z,0.79
2017-01-09T01:59:07.077Z,0.69
2017-01-09T02:00:08.507Z,0.85
2017-01-09T02:01:08.047Z,0.73
2017-01-09T02:02:07.543Z,0.83
2017-01-09T02:03:08.294Z,0.85
2017-01-09T02:04:07.794Z,0.80
2017-01-09T02:05:07.475Z,0.85
2017-01-09T02:06:08.103Z,0.88
2017-01-09T02:07:07.622Z,0.75
2017-01-09T02:08:07.392Z,0.89
2017-01-09T02:09:08.077Z,0.91
2017-01-09T02:10:08.656Z,0.42
2017-01-09T02:11:07.511Z,0.60
2017-01-09T02:12:07.976Z,0.56
2017-01-09T02:13:07.587Z,0.63
2017-01-09T02:14:07.166Z,0.64
2017-01-09T02:15:07.719Z,0.67
2017-01-09T02:16:07.540Z,0.78
2017-01-09T02:17:08.234Z,0.74
2017-01-09T02:18:07.759Z,0.61
2017-01-09T02:19:07.289Z,0.62
2017-01-09T02:22:17.776Z,0.66
2017-01-09T02:23:07.605Z,0.74
2017-01-09T02:27:07.924Z,0.85
2017-01-09T02:31:07.742Z,0.92
2017-01-09T02:33:08.754Z,0.85
2017-01-09T02:34:08.201Z,0.71
2017-01-09T02:35:07.839Z,0.88
2017-01-09T02:36:07.427Z,0.84
2017-01-09T02:39:08.308Z,0.78
2017-01-09T02:40:08.866Z,0.72
2017-01-09T02:41:08.499Z,0.80
2017-01-09T02:43:08.235Z,0.79
2017-01-09T02:44:07.859Z,0.75
2017-01-09T02:45:07.421Z,0.89
2017-01-09T02:46:08.875Z,0.88
2017-01-09T02:47:08.344Z,0.79
2017-01-09T02:48:07.918Z,0.71
2017-01-09T02:49:07.406Z,0.77
2017-01-09T02:50:08.840Z,0.70
2017-01-09T02:51:07.697Z,0.72
2017-01-09T02:52:07.248Z,0.69
2017-01-09T02:53:07.741Z,0.92
2017-01-09T02:54:08.178Z,0.84
2017-01-09T02:55:07.661Z,0.89
2017-01-09T02:56:07.152Z,0.88
2017-01-09T02:57:07.155Z,0.83
2017-01-09T02:58:07.997Z,0.77
2017-01-09T02:59:07.688Z,0.78
2017-01-09T03:00:07.561Z,0.79
2017-01-09T03:01:09.033Z,0.75
2017-01-09T03:02:07.703Z,0.55
2017-01-09T03:03:08.156Z,0.68
2017-01-09T03:04:08.610Z,0.64
2017-01-09T03:05:07.108Z,0.75
2017-01-09T03:06:08.099Z,0.78
2017-01-09T03:07:07.963Z,0.69
2017-01-09T03:08:07.432Z,0.61
2017-01-09T03:09:07.986Z,0.51
2017-01-09T03:10:07.608Z,0.72
2017-01-09T03:11:07.455Z,0.89
2017-01-09T03:12:08.053Z,0.95
2017-01-09T03:13:07.628Z,0.91
2017-01-09T03:14:07.188Z,0.99
2017-01-09T03:15:07.723Z,0.92
2017-01-09T03:16:07.552Z,0.94
2017-01-09T03:17:08.177Z,0.78
2017-01-09T03:18:07.805Z,0.64
2017-01-09T03:19:07.894Z,0.81
2017-01-09T03:20:07.407Z,0.65
2017-01-09T03:21:08.284Z,0.72
2017-01-09T03:22:07.906Z,0.78
2017-01-09T03:23:07.460Z,0.74
2017-01-09T03:24:07.915Z,0.84
2017-01-09T03:25:07.999Z,0.64
2017-01-09T03:26:07.566Z,0.70
2017-01-09T03:27:08.105Z,0.70
2017-01-09T03:28:07.907Z,0.75
2017-01-09T03:29:07.461Z,0.70
2017-01-09T03:30:08.078Z,0.65
2017-01-09T03:31:07.534Z,0.96
2017-01-09T03:32:08.019Z,0.79
2017-01-09T03:33:07.610Z,0.77
2017-01-09T03:34:07.658Z,0.90
2017-01-09T03:35:07.472Z,0.86
2017-01-09T03:36:08.067Z,0.77
2017-01-09T03:37:07.595Z,0.78
2017-01-09T03:38:07.224Z,0.85
2017-01-09T03:39:07.802Z,0.86
2017-01-09T03:40:07.385Z,0.74
2017-01-09T03:41:07.945Z,0.79
2017-01-09T03:42:07.494Z,0.85
2017-01-09T03:43:07.987Z,0.79
2017-01-09T03:44:07.559Z,0.80
2017-01-09T03:45:08.119Z,0.82
2017-01-09T03:46:07.592Z,0.92
2017-01-09T03:47:07.151Z,0.84
2017-01-09T03:48:07.652Z,0.82
2017-01-09T03:49:07.205Z,0.55
2017-01-09T03:50:07.758Z,0.63
2017-01-09T03:51:07.214Z,0.75
2017-01-09T03:52:08.107Z,0.58
2017-01-09T03:53:08.654Z,0.65
2017-01-09T03:54:07.657Z,0.72
2017-01-09T03:55:07.544Z,0.52
2017-01-09T03:56:08.051Z,0.68
2017-01-09T03:57:07.648Z,0.85
2017-01-09T03:58:07.147Z,0.79
2017-01-09T03:59:07.686Z,0.85
2017-01-09T04:00:07.188Z,0.95
2017-01-09T04:01:08.068Z,0.94
2017-01-09T04:02:07.589Z,1.01
2017-01-09T04:03:07.068Z,0.90
2017-01-09T04:04:07.614Z,0.99
2017-01-09T04:05:07.091Z,0.93
2017-01-09T04:06:07.638Z,0.95
2017-01-09T04:07:07.089Z,1.08
2017-01-09T04:09:02.274Z,0.87
2017-01-09T04:09:08.090Z,0.84
2017-01-09T04:10:07.653Z,0.95
2017-01-09T04:11:07.356Z,0.86
2017-01-09T04:12:07.957Z,0.84
2017-01-09T04:13:07.607Z,0.84
2017-01-09T04:14:07.171Z,0.75
2017-01-09T04:15:07.639Z,0.84
2017-01-09T04:16:07.159Z,0.81
2017-01-09T04:17:07.775Z,0.87
2017-01-09T04:18:08.407Z,0.92
2017-01-09T04:19:07.959Z,0.79
2017-01-09T04:20:07.612Z,0.85
2017-01-09T04:21:07.175Z,0.71
2017-01-09T04:22:07.691Z,0.37
2017-01-09T04:23:07.389Z,0.39
2017-01-09T04:24:09.065Z,0.56
2017-01-09T04:25:07.851Z,0.51
2017-01-09T04:26:07.653Z,0.70
2017-01-09T04:27:07.166Z,0.81
2017-01-09T04:28:07.721Z,0.80
2017-01-09T04:29:07.267Z,0.98
2017-01-09T04:30:07.864Z,0.91
2017-01-09T04:31:07.378Z,0.85
2017-01-09T04:32:07.957Z,0.63
2017-01-09T04:33:07.448Z,0.56
2017-01-09T04:34:08.031Z,0.80
2017-01-09T04:35:07.499Z,0.82
2017-01-09T04:36:08.059Z,0.57
2017-01-09T04:37:07.532Z,0.74
2017-01-09T04:38:08.208Z,0.94
2017-01-09T04:39:07.763Z,1.05
2017-01-09T04:40:07.337Z,0.86
2017-01-09T04:41:07.931Z,0.69
2017-01-09T04:42:07.514Z,0.87
2017-01-09T04:43:08.175Z,0.80
2017-01-09T04:44:07.880Z,0.91
2017-01-09T04:45:07.380Z,0.87
2017-01-09T04:46:07.896Z,0.66
2017-01-09T04:47:07.770Z,0.64
2017-01-09T04:48:07.349Z,0.71
2017-01-09T04:49:07.830Z,0.85
2017-01-09T04:50:07.292Z,0.73
2017-01-09T04:51:07.921Z,0.75
2017-01-09T04:52:07.427Z,0.73
2017-01-09T04:53:07.899Z,0.86
2017-01-09T04:54:07.388Z,0.83
2017-01-09T04:55:07.961Z,0.76
2017-01-09T04:56:07.539Z,0.83
2017-01-09T04:57:08.124Z,0.71
2017-01-09T04:58:07.685Z,0.84
2017-01-09T04:59:07.164Z,0.73
2017-01-09T05:00:08.068Z,0.67
2017-01-09T05:01:07.593Z,0.87
2017-01-09T05:02:07.206Z,0.77
2017-01-09T05:03:07.705Z,0.72
2017-01-09T05:04:07.281Z,0.84
2017-01-09T05:05:07.841Z,0.77
2017-01-09T05:06:07.553Z,0.89
2017-01-09T05:07:07.390Z,0.91
2017-01-09T05:08:08.196Z,0.81
2017-01-09T05:09:07.737Z,0.77
2017-01-09T05:10:07.224Z,0.80
2017-01-09T05:11:07.748Z,0.72
2017-01-09T05:12:07.290Z,0.72
2017-01-09T05:13:07.846Z,0.58
2017-01-09T05:14:07.397Z,0.66
2017-01-09T05:15:07.866Z,0.55
2017-01-09T05:16:07.366Z,0.69
2017-01-09T05:17:08.301Z,0.66
2017-01-09T05:18:08.230Z,0.84
2017-01-09T05:19:07.905Z,0.72
2017-01-09T05:20:07.467Z,0.67
2017-01-09T05:21:07.970Z,0.79
2017-01-09T05:22:07.292Z,0.67
2017-01-09T05:23:07.740Z,0.63
2017-01-09T05:24:07.281Z,0.71
2017-01-09T05:25:10.469Z,0.78
2017-01-09T05:26:09.960Z,0.83
2017-01-09T05:27:07.760Z,1.03
2017-01-09T05:28:07.563Z,0.81
2017-01-09T05:29:08.102Z,0.77
2017-01-09T05:30:07.944Z,0.71
2017-01-09T05:31:07.541Z,0.52
2017-01-09T05:32:08.110Z,0.56
2017-01-09T05:33:07.592Z,0.46
2017-01-09T05:34:07.062Z,0.53
2017-01-09T05:35:07.570Z,0.50
2017-01-09T05:36:08.061Z,0.51
2017-01-09T05:37:07.558Z,0.61
2017-01-09T05:38:07.871Z,0.56
2017-01-09T05:39:07.512Z,0.71
2017-01-09T05:40:07.778Z,0.72
2017-01-09T05:41:07.251Z,0.77
2017-01-09T05:42:08.021Z,0.90
2017-01-09T05:43:07.712Z,0.84
2017-01-09T05:44:07.253Z,0.90
2017-01-09T05:45:07.735Z,0.88
2017-01-09T05:46:07.282Z,0.59
2017-01-09T05:47:07.752Z,0.70
2017-01-09T05:48:07.612Z,0.68
2017-01-09T05:49:07.127Z,0.60
2017-01-09T05:50:07.800Z,0.58
2017-01-09T05:51:07.391Z,0.59
2017-01-09T05:52:08.175Z,0.63
2017-01-09T05:53:07.662Z,0.57
2017-01-09T05:54:07.260Z,0.48
2017-01-09T05:55:07.772Z,0.32
2017-01-09T05:56:07.431Z,0.59
2017-01-09T05:57:07.976Z,0.68
2017-01-09T05:58:07.578Z,0.55
2017-01-09T05:59:07.073Z,0.61
2017-01-09T06:00:07.668Z,0.77
2017-01-09T06:01:07.694Z,0.67
2017-01-09T06:02:07.505Z,0.57
2017-01-09T06:03:18.556Z,0.55
2017-01-09T06:04:08.416Z,0.84
2017-01-09T06:05:07.930Z,0.84
2017-01-09T06:06:07.803Z,0.71
2017-01-09T06:07:07.460Z,0.67
2017-01-09T06:08:08.920Z,0.76
2017-01-09T06:09:08.389Z,0.80
2017-01-09T06:10:07.952Z,0.69
2017-01-09T06:11:08.411Z,0.68
2017-01-09T06:12:08.001Z,0.71
2017-01-09T06:13:08.874Z,0.66
2017-01-09T06:14:07.446Z,0.72
2017-01-09T06:15:08.104Z,0.66
2017-01-09T06:16:07.602Z,0.85
2017-01-09T06:19:08.432Z,0.69
2017-01-09T06:23:07.817Z,0.84
2017-01-09T06:26:08.190Z,0.89
2017-01-09T06:27:07.688Z,0.93
2017-01-09T06:28:07.256Z,0.82
2017-01-09T06:29:08.050Z,0.92
2017-01-09T06:34:08.022Z,0.57
2017-01-09T06:35:07.589Z,0.52
2017-01-09T06:36:07.152Z,0.73
2017-01-09T06:37:07.715Z,0.56
2017-01-09T06:38:07.189Z,0.59
2017-01-09T06:39:07.750Z,0.49
2017-01-09T06:40:07.219Z,0.58
2017-01-09T06:41:07.740Z,0.50
2017-01-09T06:42:07.523Z,0.48
2017-01-09T06:43:08.017Z,0.48
2017-01-09T06:44:07.542Z,0.65
2017-01-09T06:45:08.412Z,0.52
2017-01-09T06:46:07.965Z,0.34
2017-01-09T06:47:07.745Z,0.43
2017-01-09T06:48:07.561Z,0.43
2017-01-09T06:49:08.331Z,0.46
2017-01-09T06:50:07.872Z,0.48
2017-01-09T06:51:07.389Z,0.45
2017-01-09T06:52:07.942Z,0.52
2017-01-09T06:54:07.951Z,0.67
2017-01-09T06:55:07.810Z,0.68
2017-01-09T06:56:07.796Z,0.69
2017-01-09T06:57:07.653Z,0.68
2017-01-09T06:58:07.237Z,0.72
2017-01-09T06:59:07.817Z,0.79
2017-01-09T07:00:07.458Z,0.95
2017-01-09T07:01:07.995Z,0.94
2017-01-09T07:02:07.570Z,0.68
2017-01-09T07:03:08.149Z,0.79
2017-01-09T07:04:07.662Z,0.63
2017-01-09T07:05:07.329Z,0.71
2017-01-09T07:06:07.861Z,0.78
2017-01-09T07:07:07.546Z,0.76
2017-01-09T07:08:08.182Z,0.80
2017-01-09T07:09:07.841Z,0.88
2017-01-09T07:10:07.390Z,0.85
2017-01-09T07:11:07.893Z,0.72
2017-01-09T07:12:07.466Z,0.71
2017-01-09T07:13:08.224Z,0.85
2017-01-09T07:14:08.190Z,0.91
2017-01-09T07:15:07.654Z,0.81
2017-01-09T07:16:07.226Z,0.72
2017-01-09T07:17:07.862Z,0.70
2017-01-09T07:18:07.321Z,0.76
2017-01-09T07:19:07.903Z,0.76
2017-01-09T07:20:07.390Z,0.80
2017-01-09T07:21:08.172Z,0.66
2017-01-09T07:22:07.670Z,0.55
2017-01-09T07:23:07.250Z,0.68
2017-01-09T07:24:07.860Z,0.72
2017-01-09T07:25:07.474Z,0.67
2017-01-09T07:26:07.996Z,0.72
2017-01-09T07:27:07.716Z,0.65
2017-01-09T07:28:07.233Z,0.57
2017-01-09T07:29:07.903Z,0.56
2017-01-09T07:30:07.840Z,0.55
2017-01-09T07:31:07.763Z,0.73
2017-01-09T07:32:07.222Z,0.82
2017-01-09T07:33:07.762Z,0.68
2017-01-09T07:34:07.263Z,0.82
2017-01-09T07:35:07.821Z,0.65
2017-01-09T07:36:07.268Z,0.76
2017-01-09T07:37:08.076Z,0.59
2017-01-09T07:38:08.546Z,0.69
2017-01-09T07:39:08.038Z,0.68
2017-01-09T07:40:07.609Z,0.67
2017-01-09T07:41:07.404Z,0.72
2017-01-09T07:42:07.953Z,0.78
2017-01-09T07:43:07.470Z,0.89
2017-01-09T07:44:08.023Z,0.93
2017-01-09T07:45:07.599Z,0.95
2017-01-09T07:46:07.163Z,0.94
2017-01-09T07:47:08.048Z,0.93
2017-01-09T07:48:07.771Z,0.88
2017-01-09T07:49:07.629Z,0.83
2017-01-09T07:50:07.133Z,0.69
2017-01-09T07:51:07.758Z,0.64
2017-01-09T07:52:07.404Z,0.54
2017-01-09T07:53:07.973Z,0.71
2017-01-09T07:54:07.484Z,0.67
2017-01-09T07:55:08.070Z,0.75
2017-01-09T07:56:07.705Z,0.84
2017-01-09T07:57:07.215Z,0.80
2017-01-09T07:58:07.767Z,0.74
2017-01-09T07:59:07.345Z,0.74
2017-01-09T08:00:07.924Z,0.75
2017-01-09T08:01:07.482Z,0.88
2017-01-09T08:02:08.144Z,0.64
2017-01-09T08:03:07.954Z,0.80
2017-01-09T08:04:07.550Z,0.73
2017-01-09T08:05:08.140Z,0.67
2017-01-09T08:06:07.659Z,0.65
2017-01-09T08:07:07.274Z,0.68
2017-01-09T08:08:07.809Z,0.67
2017-01-09T08:09:07.322Z,0.88
2017-01-09T08:10:08.259Z,0.64
2017-01-09T08:11:07.733Z,0.78
2017-01-09T08:12:07.237Z,0.80
2017-01-09T08:13:08.060Z,0.73
2017-01-09T08:14:07.639Z,0.67
2017-01-09T08:15:07.246Z,0.69
2017-01-09T08:16:07.922Z,0.84
2017-01-09T08:17:07.537Z,0.83
2017-01-09T08:18:08.163Z,0.93
2017-01-09T08:19:07.711Z,0.95
2017-01-09T08:20:07.864Z,0.78
2017-01-09T08:21:07.409Z,0.68
2017-01-09T08:22:07.899Z,0.75
2017-01-09T08:23:07.390Z,0.88
2017-01-09T08:24:07.830Z,1.07
2017-01-09T08:25:07.724Z,1.00
2017-01-09T08:26:07.269Z,0.88
2017-01-09T08:27:07.854Z,0.96
2017-01-09T08:28:07.508Z,0.94
2017-01-09T08:29:08.033Z,0.94
2017-01-09T08:30:07.781Z,0.96
2017-01-09T08:31:07.437Z,1.03
2017-01-09T08:32:07.942Z,0.98
2017-01-09T08:33:07.583Z,0.79
2017-01-09T08:34:07.212Z,0.93
2017-01-09T08:35:07.747Z,1.08
2017-01-09T08:36:07.307Z,1.06
2017-01-09T08:37:07.997Z,0.99
2017-01-09T08:38:07.463Z,0.91
2017-01-09T08:39:08.268Z,1.06
2017-01-09T08:40:07.767Z,1.07
2017-01-09T08:41:07.366Z,0.98
2017-01-09T08:42:07.953Z,0.88
2017-01-09T08:43:07.463Z,1.10
2017-01-09T08:44:07.982Z,1.15
2017-01-09T08:45:07.569Z,1.10
2017-01-09T08:46:08.131Z,1.05
2017-01-09T08:47:07.692Z,0.91
2017-01-09T08:48:07.200Z,1.12
2017-01-09T08:49:07.841Z,1.03
2017-01-09T08:50:07.385Z,1.11
2017-01-09T08:51:07.892Z,0.95
2017-01-09T08:52:07.494Z,0.97
2017-01-09T08:53:08.058Z,1.04
2017-01-09T08:54:07.625Z,1.19
2017-01-09T08:55:07.454Z,1.26
2017-01-09T08:56:07.942Z,1.16
2017-01-09T08:57:07.469Z,1.08
2017-01-09T08:58:08.058Z,1.14
2017-01-09T08:59:07.573Z,0.93
2017-01-09T09:00:08.087Z,1.18
2017-01-09T09:01:07.688Z,1.20
2017-01-09T09:02:07.242Z,1.24
2017-01-09T09:03:07.919Z,1.38
2017-01-09T09:04:07.688Z,1.20
2017-01-09T09:05:07.579Z,1.12
2017-01-09T09:06:08.338Z,1.11
2017-01-09T09:07:07.932Z,1.16
2017-01-09T09:08:07.562Z,1.31
2017-01-09T09:09:08.318Z,1.44
2017-01-09T09:10:07.858Z,1.31
2017-01-09T09:11:07.398Z,1.22
2017-01-09T09:12:07.905Z,1.50
2017-01-09T09:13:07.431Z,1.24
2017-01-09T09:14:07.982Z,1.15
2017-01-09T09:15:07.546Z,1.26
2017-01-09T09:16:08.116Z,1.24
2017-01-09T09:17:07.681Z,1.41
2017-01-09T09:18:07.249Z,1.29
2017-01-09T09:19:08.096Z,1.31
2017-01-09T09:20:07.582Z,1.27
2017-01-09T09:21:08.075Z,1.23
2017-01-09T09:22:07.610Z,1.38
2017-01-09T09:23:07.077Z,1.60
2017-01-09T09:24:07.705Z,1.50
2017-01-09T09:25:07.462Z,1.52
2017-01-09T09:26:07.657Z,1.64
2017-01-09T09:27:07.448Z,1.45
2017-01-09T09:28:07.931Z,1.41
2017-01-09T09:29:07.433Z,1.38
2017-01-09T09:30:08.902Z,1.26
2017-01-09T09:31:07.506Z,1.25
2017-01-09T09:32:08.067Z,1.27
2017-01-09T09:33:07.871Z,1.49
2017-01-09T09:34:07.393Z,1.51
2017-01-09T09:35:07.879Z,1.60
2017-01-09T09:36:07.689Z,1.60
2017-01-09T09:37:07.249Z,1.67
2017-01-09T09:38:07.863Z,1.50
2017-01-09T09:39:07.496Z,1.49
2017-01-09T09:40:08.062Z,1.55
2017-01-09T09:41:07.619Z,1.54
2017-01-09T09:42:07.521Z,1.52
2017-01-09T09:43:08.035Z,1.57
2017-01-09T09:44:07.623Z,1.76
2017-01-09T09:45:07.460Z,1.71
2017-01-09T09:46:07.990Z,1.75
2017-01-09T09:47:07.601Z,1.68
2017-01-09T09:48:07.498Z,1.71
2017-01-09T09:49:08.362Z,1.70
2017-01-09T09:50:07.933Z,1.54
2017-01-09T09:51:07.481Z,1.63
2017-01-09T09:52:08.131Z,1.66
2017-01-09T09:53:07.765Z,1.81
2017-01-09T09:54:07.290Z,1.72
2017-01-09T09:55:07.839Z,1.52
2017-01-09T09:56:07.464Z,1.50
2017-01-09T09:57:07.973Z,1.48
2017-01-09T09:58:07.578Z,1.62
2017-01-09T09:59:09.018Z,1.76
2017-01-09T10:00:07.547Z,2.04
2017-01-09T10:01:08.136Z,1.92
2017-01-09T10:02:08.014Z,2.04
2017-01-09T10:03:07.633Z,2.05
2017-01-09T10:04:07.147Z,1.83
2017-01-09T10:05:07.751Z,1.84
2017-01-09T10:06:07.329Z,1.78
2017-01-09T10:07:07.973Z,2.02
2017-01-09T10:08:07.473Z,2.09
2017-01-09T10:09:08.045Z,2.19
2017-01-09T10:10:07.609Z,2.29
2017-01-09T10:11:07.398Z,1.98
2017-01-09T10:12:08.185Z,2.05
2017-01-09T10:13:07.792Z,1.93
2017-01-09T10:14:07.326Z,2.02
2017-01-09T10:15:07.909Z,2.02
2017-01-09T10:16:07.495Z,2.09
2017-01-09T10:17:08.217Z,1.70
2017-01-09T10:18:08.026Z,1.89
2017-01-09T10:19:07.536Z,1.97
2017-01-09T10:20:08.293Z,1.90
2017-01-09T10:21:07.877Z,1.99
2017-01-09T10:22:07.555Z,2.05
2017-01-09T10:23:08.098Z,1.99
2017-01-09T10:24:07.685Z,1.79
2017-01-09T10:25:07.217Z,1.92
2017-01-09T10:26:07.906Z,2.00
2017-01-09T10:27:07.452Z,1.95
2017-01-09T10:28:08.047Z,2.16
2017-01-09T10:29:07.608Z,2.07
2017-01-09T10:30:07.133Z,2.23
2017-01-09T10:31:07.647Z,2.02
2017-01-09T10:32:07.469Z,1.79
2017-01-09T10:33:07.995Z,1.74
2017-01-09T10:34:07.484Z,2.00
2017-01-09T10:35:07.987Z,2.27
2017-01-09T10:36:07.773Z,2.18
2017-01-09T10:37:07.639Z,2.15
2017-01-09T10:38:07.539Z,2.18
2017-01-09T10:39:08.155Z,2.27
2017-01-09T10:40:07.708Z,2.39
2017-01-09T10:41:07.313Z,2.21
2017-01-09T10:42:07.920Z,1.79
2017-01-09T10:43:07.398Z,1.82
2017-01-09T10:44:07.982Z,1.87
2017-01-09T10:45:07.528Z,1.77
2017-01-09T10:46:08.057Z,1.96
2017-01-09T10:47:07.598Z,1.89
2017-01-09T10:48:07.127Z,1.92
2017-01-09T10:49:07.658Z,1.89
2017-01-09T10:50:07.123Z,2.01
2017-01-09T10:51:07.717Z,2.10
2017-01-09T10:52:07.300Z,2.04
2017-01-09T10:53:07.794Z,1.85
2017-01-09T10:54:07.444Z,2.06
2017-01-09T10:55:07.915Z,2.21
2017-01-09T10:56:07.370Z,2.17
2017-01-09T10:57:08.008Z,2.19
2017-01-09T10:58:07.687Z,2.07
2017-01-09T10:59:07.220Z,2.29
2017-01-09T11:00:07.730Z,2.28
2017-01-09T11:01:07.316Z,2.44
2017-01-09T11:02:07.898Z,2.25
2017-01-09T11:03:07.505Z,2.03
2017-01-09T11:04:08.087Z,2.21
2017-01-09T11:05:07.834Z,2.31
2017-01-09T11:06:07.396Z,2.17
2017-01-09T11:07:07.930Z,2.07
2017-01-09T11:08:07.684Z,2.38
2017-01-09T11:09:07.157Z,2.23
2017-01-09T11:10:07.701Z,2.08
2017-01-09T11:11:07.551Z,1.94
2017-01-09T11:12:08.018Z,1.92
2017-01-09T11:13:07.592Z,2.09
2017-01-09T11:14:07.120Z,2.16
2017-01-09T11:15:07.659Z,2.25
2017-01-09T11:16:07.191Z,2.13
2017-01-09T11:17:07.927Z,1.91
2017-01-09T11:18:07.451Z,2.34
2017-01-09T11:19:08.011Z,2.19
2017-01-09T11:20:07.856Z,2.27
2017-01-09T11:21:07.729Z,2.28
2017-01-09T11:22:07.277Z,2.19
2017-01-09T11:23:07.902Z,2.33
2017-01-09T11:24:07.383Z,2.57
2017-01-09T11:25:07.898Z,2.46
2017-01-09T11:26:18.914Z,2.01
2017-01-09T11:27:07.511Z,1.78
2017-01-09T11:28:08.218Z,2.01
2017-01-09T11:29:07.773Z,2.17
2017-01-09T11:30:07.339Z,2.11
2017-01-09T11:31:08.215Z,2.24
2017-01-09T11:32:07.923Z,2.35
2017-01-09T11:33:07.465Z,2.25
2017-01-09T11:34:08.916Z,2.45
2017-01-09T11:35:07.386Z,2.28
2017-01-09T11:36:07.895Z,2.03
2017-01-09T11:37:07.496Z,1.84
2017-01-09T11:38:08.008Z,1.97
2017-01-09T11:39:07.825Z,2.12
2017-01-09T11:40:07.336Z,2.20
2017-01-09T11:41:08.218Z,2.30
2017-01-09T11:42:07.681Z,2.08
2017-01-09T11:43:07.218Z,2.40
2017-01-09T11:44:07.831Z,2.15
2017-01-09T11:45:07.353Z,2.18
2017-01-09T11:46:07.851Z,2.23
2017-01-09T11:47:07.804Z,2.17
2017-01-09T11:48:07.302Z,2.41
2017-01-09T11:49:08.187Z,2.46
2017-01-09T11:50:07.694Z,2.39
2017-01-09T11:51:07.334Z,2.32
2017-01-09T11:52:07.939Z,2.31
2017-01-09T11:53:07.515Z,2.07
2017-01-09T11:54:08.124Z,2.13
2017-01-09T11:55:07.606Z,2.20
2017-01-09T11:56:07.076Z,1.91
2017-01-09T11:57:07.571Z,2.12
2017-01-09T11:58:08.135Z,2.05
2017-01-09T11:59:07.662Z,2.07
2017-01-09T12:00:07.319Z,2.14
2017-01-09T12:01:07.843Z,2.11
2017-01-09T12:02:07.478Z,2.08
2017-01-09T12:03:08.073Z,2.21
2017-01-09T12:04:07.919Z,2.39
2017-01-09T12:05:07.429Z,2.19
2017-01-09T12:06:07.995Z,2.35
2017-01-09T12:07:07.537Z,2.39
2017-01-09T12:08:08.090Z,2.52
2017-01-09T12:09:07.670Z,2.29
2017-01-09T12:10:07.219Z,2.00
2017-01-09T12:11:07.718Z,2.29
2017-01-09T12:12:07.404Z,1.88
2017-01-09T12:13:07.964Z,1.98
2017-01-09T12:14:07.528Z,1.93
2017-01-09T12:15:08.164Z,2.00
2017-01-09T12:16:07.738Z,2.03
2017-01-09T12:17:07.475Z,2.25
2017-01-09T12:18:08.016Z,2.25
2017-01-09T12:19:07.665Z,2.29
2017-01-09T12:20:07.134Z,2.29
2017-01-09T12:21:07.755Z,2.16
2017-01-09T12:22:07.197Z,2.25
2017-01-09T12:23:07.688Z,2.20
2017-01-09T12:24:07.252Z,2.28
2017-01-09T12:25:07.847Z,2.36
2017-01-09T12:26:07.359Z,2.26
2017-01-09T12:27:07.931Z,2.47
2017-01-09T12:28:07.455Z,2.44
2017-01-09T12:29:07.904Z,2.53
2017-01-09T12:30:07.461Z,2.54
2017-01-09T12:31:08.020Z,2.18
2017-01-09T12:32:07.744Z,2.21
2017-01-09T12:33:07.543Z,2.16
2017-01-09T12:34:08.119Z,2.29
2017-01-09T12:35:07.712Z,2.17
2017-01-09T12:36:07.313Z,2.21
2017-01-09T12:37:07.860Z,2.29
2017-01-09T12:38:07.384Z,2.28
2017-01-09T12:39:07.952Z,2.28
2017-01-09T12:40:07.661Z,2.37
2017-01-09T12:41:07.218Z,2.32
2017-01-09T12:42:07.753Z,2.51
2017-01-09T12:43:07.249Z,2.43
2017-01-09T12:44:07.724Z,2.33
2017-01-09T12:45:07.194Z,2.42
2017-01-09T12:46:07.762Z,2.23
2017-01-09T12:47:07.439Z,2.25
2017-01-09T12:48:07.947Z,2.20
2017-01-09T12:49:07.466Z,2.13
2017-01-09T12:50:08.010Z,2.26
2017-01-09T12:51:07.631Z,2.24
2017-01-09T12:52:07.395Z,2.04
2017-01-09T12:53:07.895Z,2.09
2017-01-09T12:54:07.677Z,2.25
2017-01-09T12:55:07.166Z,2.36
2017-01-09T12:56:07.797Z,2.09
2017-01-09T12:57:07.270Z,2.37
2017-01-09T12:58:07.848Z,2.43
2017-01-09T12:59:07.357Z,2.23
2017-01-09T13:00:07.963Z,1.90
2017-01-09T13:01:07.571Z,2.02
2017-01-09T13:02:08.200Z,2.16
2017-01-09T13:03:08.070Z,2.33
2017-01-09T13:04:07.523Z,2.29
2017-01-09T13:05:08.134Z,2.34
2017-01-09T13:06:07.687Z,2.51
2017-01-09T13:07:07.248Z,2.25
2017-01-09T13:08:07.816Z,2.53
2017-01-09T13:09:07.434Z,2.42
2017-01-09T13:10:07.985Z,2.19
2017-01-09T13:11:07.472Z,2.18
2017-01-09T13:12:07.066Z,2.15
2017-01-09T13:13:07.618Z,2.18
2017-01-09T13:14:07.133Z,2.12
2017-01-09T13:15:07.744Z,2.14
2017-01-09T13:16:07.334Z,2.23
2017-01-09T13:17:08.030Z,2.09
2017-01-09T13:18:07.759Z,2.03
2017-01-09T13:19:07.244Z,2.24
2017-01-09T13:20:07.728Z,1.85
2017-01-09T13:21:07.267Z,1.99
2017-01-09T13:22:07.837Z,2.18
2017-01-09T13:23:07.372Z,2.09
2017-01-09T13:24:07.995Z,1.89
2017-01-09T13:25:07.851Z,2.06
2017-01-09T13:26:07.405Z,1.99
2017-01-09T13:27:07.927Z,1.85
2017-01-09T13:28:07.414Z,2.09
2017-01-09T13:29:07.925Z,2.01
2017-01-09T13:30:07.519Z,2.18
2017-01-09T13:31:08.068Z,2.14
2017-01-09T13:32:07.627Z,2.07
2017-01-09T13:33:07.131Z,1.83
2017-01-09T13:34:07.625Z,2.00
2017-01-09T13:35:07.517Z,1.91
2017-01-09T13:36:08.125Z,2.07
2017-01-09T13:37:07.777Z,2.10
2017-01-09T13:38:07.275Z,2.02
2017-01-09T13:39:07.762Z,1.96
2017-01-09T13:40:07.288Z,2.06
2017-01-09T13:41:07.805Z,2.05
2017-01-09T13:42:07.409Z,2.17
2017-01-09T13:43:07.881Z,2.09
2017-01-09T13:44:07.371Z,1.92
2017-01-09T13:45:07.918Z,2.12
2017-01-09T13:46:07.467Z,2.10
2017-01-09T13:47:08.028Z,1.89
2017-01-09T13:48:07.876Z,1.88
2017-01-09T13:49:07.433Z,1.99
2017-01-09T13:50:07.743Z,2.05
2017-01-09T13:51:07.206Z,2.06
2017-01-09T13:52:07.775Z,2.09
2017-01-09T13:53:07.293Z,1.97